Terminal Aerodrome Forecast
Issued by NWS

Home | Current Version | Previous Version | Text Only | Print | Product List | Glossary On
Versions: 1 2 3 4 5 6 7 8 9 10 11 12 13 14 15 16 17 18 19 20 21 22
000
FTPA31 PHFO 261902 AAA
TAFHTO
TAF AMD
PHTO 261902Z 2619/2718 VRB06KT 2SM -SHRA BR BKN025 OVC045
     FM262000 11010KT 6SM -SHRA BKN025 OVC040
     FM270500 23004KT P6SM VCSH BKN025 OVC040=

USA.gov is the U.S. government's official web portal to all federal, state and local government web resources and services.